createdAt,value
2023-05-19T00:01:20.537Z,90.08
2023-05-19T00:03:57.867Z,90.17
2023-05-19T00:06:33.335Z,90.24
2023-05-19T00:09:03.012Z,90.19
2023-05-19T00:11:30.303Z,90.53
2023-05-19T00:13:59.634Z,90.36
2023-05-19T00:16:28.293Z,90.29
2023-05-19T00:18:55.432Z,90.63
2023-05-19T00:21:22.199Z,90.55
2023-05-19T00:23:49.401Z,90.77
2023-05-19T00:26:16.089Z,90.63
2023-05-19T00:28:42.814Z,90.93
2023-05-19T00:31:09.892Z,90.92
2023-05-19T00:33:36.730Z,90.94
2023-05-19T00:36:04.185Z,90.96
2023-05-19T00:38:31.411Z,90.98
2023-05-19T00:40:58.788Z,91.14
2023-05-19T00:43:26.213Z,91.22
2023-05-19T00:45:53.242Z,91.08
2023-05-19T00:48:20.059Z,91.17
2023-05-19T00:50:47.035Z,91.31
2023-05-19T00:53:15.085Z,91.23
2023-05-19T00:55:42.917Z,91.30
2023-05-19T00:58:11.498Z,91.36
2023-05-19T01:00:39.900Z,91.47
2023-05-19T01:03:11.625Z,91.38
2023-05-19T01:05:42.815Z,91.34
2023-05-19T01:08:09.575Z,91.31
2023-05-19T01:10:36.987Z,91.49
2023-05-19T01:13:05.489Z,91.48
2023-05-19T01:15:51.887Z,91.69
2023-05-19T01:18:26.270Z,91.84
2023-05-19T01:21:12.751Z,91.65
2023-05-19T01:23:57.408Z,91.40
2023-05-19T01:27:09.450Z,91.55
2023-05-19T01:29:47.398Z,91.53
2023-05-19T01:32:19.692Z,91.41
2023-05-19T01:34:49.246Z,91.42
2023-05-19T01:37:17.833Z,91.17
2023-05-19T01:39:45.968Z,91.52
2023-05-19T01:42:14.394Z,91.69
2023-05-19T01:44:42.000Z,91.68
2023-05-19T01:47:09.814Z,91.58
2023-05-19T01:49:36.622Z,91.72
2023-05-19T01:52:03.311Z,91.63
2023-05-19T01:54:30.164Z,91.85
2023-05-19T01:57:02.644Z,91.85
2023-05-19T01:59:50.952Z,91.87
2023-05-19T02:02:39.503Z,91.98
2023-05-19T02:05:43.871Z,91.77
2023-05-19T02:08:31.382Z,92.07
2023-05-19T02:11:08.025Z,92.05
2023-05-19T02:13:38.821Z,92.13
2023-05-19T02:16:06.442Z,92.05
2023-05-19T02:18:34.089Z,92.26
2023-05-19T02:21:01.427Z,92.18
2023-05-19T02:23:28.177Z,92.24
2023-05-19T02:25:55.001Z,92.18
2023-05-19T02:28:21.737Z,92.46
2023-05-19T02:30:48.579Z,92.19
2023-05-19T02:33:15.421Z,92.26
2023-05-19T02:35:42.160Z,92.33
2023-05-19T02:38:08.975Z,92.04
2023-05-19T02:40:35.753Z,92.19
2023-05-19T02:43:02.589Z,92.32
2023-05-19T02:45:29.793Z,92.25
2023-05-19T02:47:57.571Z,91.99
2023-05-19T02:50:24.315Z,92.06
2023-05-19T02:52:52.825Z,92.02
2023-05-19T02:55:19.830Z,92.24
2023-05-19T02:57:46.702Z,92.10
2023-05-19T03:00:14.231Z,92.21
2023-05-19T03:02:41.616Z,92.33
2023-05-19T03:05:08.981Z,92.21
2023-05-19T03:07:39.221Z,92.28
2023-05-19T03:10:09.873Z,92.30
2023-05-19T03:12:36.588Z,92.29
2023-05-19T03:15:03.521Z,92.45
2023-05-19T03:17:34.239Z,92.50
2023-05-19T03:20:01.698Z,92.46
2023-05-19T03:22:28.446Z,92.34
2023-05-19T03:24:55.302Z,92.28
2023-05-19T03:27:22.118Z,92.44
2023-05-19T03:29:48.788Z,92.31
2023-05-19T03:32:16.265Z,92.20
2023-05-19T03:34:43.054Z,92.31
2023-05-19T03:37:11.220Z,92.39
2023-05-19T03:39:38.011Z,92.31
2023-05-19T03:42:04.813Z,92.50
2023-05-19T03:44:31.623Z,92.29
2023-05-19T03:46:58.493Z,92.36
2023-05-19T03:49:25.216Z,92.25
2023-05-19T03:51:51.948Z,92.40
2023-05-19T03:54:19.272Z,92.45
2023-05-19T03:56:46.205Z,92.44
2023-05-19T03:59:16.346Z,92.39
2023-05-19T04:01:44.155Z,92.50
2023-05-19T04:04:11.185Z,92.15
2023-05-19T04:06:38.020Z,92.23
2023-05-19T04:09:14.717Z,92.37
2023-05-19T04:11:42.571Z,92.12
2023-05-19T04:14:09.482Z,92.23
2023-05-19T04:16:36.418Z,92.48
2023-05-19T04:19:03.244Z,92.52
2023-05-19T04:21:30.158Z,92.46
2023-05-19T04:23:59.326Z,92.56
2023-05-19T04:26:26.996Z,92.60
2023-05-19T04:28:54.269Z,92.32
2023-05-19T04:31:21.958Z,92.75
2023-05-19T04:33:49.904Z,92.61
2023-05-19T04:36:20.905Z,92.71
2023-05-19T04:38:48.409Z,92.61
2023-05-19T04:41:16.664Z,92.74
2023-05-19T04:43:44.918Z,92.63
2023-05-19T04:46:14.220Z,92.44
2023-05-19T04:48:41.616Z,92.56
2023-05-19T04:51:08.457Z,92.44
2023-05-19T04:53:35.400Z,92.69
2023-05-19T04:56:02.385Z,92.74
2023-05-19T04:58:29.403Z,92.55
2023-05-19T05:00:56.190Z,92.72
2023-05-19T05:03:26.737Z,92.55
2023-05-19T05:05:53.588Z,92.82
2023-05-19T05:08:23.495Z,92.85
2023-05-19T05:10:52.690Z,92.68
2023-05-19T05:13:22.498Z,92.69
2023-05-19T05:15:49.580Z,92.70
2023-05-19T05:18:16.649Z,92.92
2023-05-19T05:20:46.429Z,92.60
2023-05-19T05:23:14.847Z,92.62
2023-05-19T05:25:42.349Z,92.53
2023-05-19T05:28:09.306Z,92.30
2023-05-19T05:30:36.221Z,92.42
2023-05-19T05:33:03.374Z,92.55
2023-05-19T05:35:30.344Z,92.43
2023-05-19T05:37:57.730Z,92.41
2023-05-19T05:40:24.508Z,92.45
2023-05-19T05:42:51.378Z,92.30
2023-05-19T05:45:18.170Z,92.31
2023-05-19T05:47:45.127Z,92.40
2023-05-19T05:50:13.314Z,92.33
2023-05-19T05:52:42.507Z,92.20
2023-05-19T05:55:09.944Z,92.12
2023-05-19T05:57:36.698Z,91.98
2023-05-19T06:00:07.587Z,92.07
2023-05-19T06:02:34.485Z,91.98
2023-05-19T06:05:01.205Z,91.96
2023-05-19T06:07:28.058Z,91.78
2023-05-19T06:09:54.857Z,91.69
2023-05-19T06:12:23.159Z,91.76
2023-05-19T06:14:49.895Z,91.62
2023-05-19T06:17:16.652Z,91.63
2023-05-19T06:19:43.539Z,91.61
2023-05-19T06:22:10.361Z,91.35
2023-05-19T06:24:39.341Z,91.33
2023-05-19T06:27:06.444Z,91.13
2023-05-19T06:29:33.259Z,91.24
2023-05-19T06:32:00.026Z,90.91
2023-05-19T06:34:27.065Z,91.13
2023-05-19T06:36:53.804Z,91.03
2023-05-19T06:39:20.581Z,91.04
2023-05-19T06:41:47.472Z,90.79
2023-05-19T06:44:14.270Z,90.56
2023-05-19T06:46:41.174Z,90.03
2023-05-19T06:49:07.990Z,90.01
2023-05-19T06:51:35.498Z,89.92
2023-05-19T06:54:02.656Z,89.86
2023-05-19T06:56:29.561Z,89.68
2023-05-19T06:58:57.309Z,89.59
2023-05-19T07:01:24.257Z,89.46
2023-05-19T07:03:51.307Z,89.44
2023-05-19T07:06:18.011Z,88.86
2023-05-19T07:08:44.641Z,88.94
2023-05-19T07:11:12.723Z,88.91
2023-05-19T07:13:39.493Z,88.79
2023-05-19T07:16:06.490Z,88.40
2023-05-19T07:18:33.622Z,88.40
2023-05-19T07:21:00.390Z,88.11
2023-05-19T07:23:27.130Z,88.07
2023-05-19T07:25:57.753Z,87.77
2023-05-19T07:28:24.548Z,87.60
2023-05-19T07:30:52.115Z,87.13
2023-05-19T07:33:19.001Z,86.84
2023-05-19T07:35:46.451Z,86.72
2023-05-19T07:38:13.344Z,86.67
2023-05-19T07:40:40.156Z,86.43
2023-05-19T07:43:06.930Z,86.06
2023-05-19T07:45:34.781Z,86.29
2023-05-19T07:48:01.603Z,86.10
2023-05-19T07:50:28.494Z,86.13
2023-05-19T07:52:55.502Z,85.78
2023-05-19T07:55:23.505Z,86.07
2023-05-19T07:57:51.099Z,86.23
2023-05-19T08:00:18.314Z,86.26
2023-05-19T08:02:48.611Z,86.44
2023-05-19T08:05:15.559Z,86.44
2023-05-19T08:07:42.277Z,85.73
2023-05-19T08:10:09.318Z,86.24
2023-05-19T08:12:39.165Z,85.75
2023-05-19T08:15:06.492Z,85.52
2023-05-19T08:17:33.347Z,84.64
2023-05-19T08:20:04.603Z,84.17
2023-05-19T08:22:32.313Z,84.81
2023-05-19T08:25:06.397Z,84.50
2023-05-19T08:27:33.589Z,85.06
2023-05-19T08:30:08.407Z,84.88
2023-05-19T08:32:35.279Z,84.56
2023-05-19T08:35:03.109Z,84.58
2023-05-19T08:37:31.989Z,84.54
2023-05-19T08:40:01.080Z,84.73
2023-05-19T08:42:27.915Z,84.58
2023-05-19T08:44:54.675Z,84.63
2023-05-19T08:47:23.052Z,84.25
2023-05-19T08:49:57.944Z,84.21
2023-05-19T08:52:52.562Z,84.24
2023-05-19T08:55:34.521Z,84.61
2023-05-19T08:58:03.625Z,84.59
2023-05-19T09:00:30.794Z,84.41
2023-05-19T09:03:05.999Z,84.58
2023-05-19T09:05:40.622Z,84.84
2023-05-19T09:08:07.949Z,84.83
2023-05-19T09:10:34.698Z,85.23
2023-05-19T09:13:01.643Z,85.04
2023-05-19T09:15:28.729Z,85.26
2023-05-19T09:18:09.178Z,85.25
2023-05-19T09:20:46.367Z,85.23
2023-05-19T09:23:16.551Z,85.16
2023-05-19T09:25:48.750Z,84.67
2023-05-19T09:28:38.081Z,84.38
2023-05-19T09:31:12.065Z,84.49
2023-05-19T09:33:45.581Z,84.43
2023-05-19T09:36:13.776Z,84.05
2023-05-19T09:38:41.684Z,84.57
2023-05-19T09:41:09.612Z,84.33
2023-05-19T09:43:36.736Z,84.44
2023-05-19T09:46:04.418Z,84.37
2023-05-19T09:48:31.178Z,84.28
2023-05-19T09:51:03.086Z,84.55
2023-05-19T09:53:31.216Z,84.28
2023-05-19T09:55:58.708Z,84.29
2023-05-19T09:58:26.676Z,84.32
2023-05-19T10:00:54.958Z,84.41
2023-05-19T10:03:25.842Z,84.55
2023-05-19T10:05:53.718Z,84.49
2023-05-19T10:08:21.741Z,84.77
2023-05-19T10:10:48.684Z,85.27
2023-05-19T10:13:16.796Z,84.90
2023-05-19T10:15:57.362Z,84.78
2023-05-19T10:18:26.193Z,84.40
2023-05-19T10:20:55.186Z,84.11
2023-05-19T10:23:22.614Z,84.51
2023-05-19T10:25:53.821Z,84.30
2023-05-19T10:28:26.873Z,84.29
2023-05-19T10:30:56.714Z,84.46
2023-05-19T10:33:40.769Z,84.45
2023-05-19T10:36:21.470Z,84.54
2023-05-19T10:39:04.956Z,84.04
2023-05-19T10:41:51.184Z,84.16
2023-05-19T10:44:26.814Z,83.52
2023-05-19T10:46:56.012Z,83.51
2023-05-19T10:49:24.165Z,83.60
2023-05-19T10:51:55.200Z,83.81
2023-05-19T10:54:46.178Z,83.92
2023-05-19T10:57:17.706Z,83.10
2023-05-19T10:59:49.741Z,82.76
2023-05-19T11:02:42.851Z,82.28
2023-05-19T11:05:14.567Z,82.62
2023-05-19T11:07:43.904Z,82.61
2023-05-19T11:10:11.228Z,82.35
2023-05-19T11:12:43.340Z,82.15
2023-05-19T11:15:15.581Z,82.23
2023-05-19T11:17:45.399Z,82.40
2023-05-19T11:20:26.866Z,82.53
2023-05-19T11:23:18.201Z,82.87
2023-05-19T11:25:51.583Z,82.85
2023-05-19T11:28:20.227Z,83.01
2023-05-19T11:30:52.451Z,82.65
2023-05-19T11:33:29.304Z,82.77
2023-05-19T11:36:00.239Z,82.46
2023-05-19T11:38:28.719Z,82.85
2023-05-19T11:40:56.488Z,82.46
2023-05-19T11:43:26.601Z,82.57
2023-05-19T11:45:57.126Z,82.23
2023-05-19T11:48:24.949Z,82.43
2023-05-19T11:50:52.744Z,82.31
2023-05-19T11:53:22.911Z,82.05
2023-05-19T11:55:50.165Z,81.40
2023-05-19T11:58:17.646Z,81.93
2023-05-19T12:00:47.911Z,82.04
2023-05-19T12:03:15.185Z,82.23
2023-05-19T12:05:48.972Z,82.41
2023-05-19T12:08:19.373Z,81.67
2023-05-19T12:10:50.808Z,82.07
2023-05-19T12:13:17.661Z,81.77
2023-05-19T12:15:44.482Z,81.68
2023-05-19T12:18:11.498Z,82.02
2023-05-19T12:20:39.448Z,81.71
2023-05-19T12:23:06.696Z,81.59
2023-05-19T12:25:34.523Z,80.95
2023-05-19T12:28:05.372Z,81.03
2023-05-19T12:30:33.959Z,81.60
2023-05-19T12:33:02.394Z,81.42
2023-05-19T12:35:32.266Z,81.43
2023-05-19T12:38:03.688Z,81.90
2023-05-19T12:40:30.800Z,81.95
2023-05-19T12:42:59.408Z,81.94
2023-05-19T12:45:40.243Z,81.79
2023-05-19T12:48:12.127Z,82.32
2023-05-19T12:50:39.162Z,82.47
2023-05-19T12:53:09.584Z,82.34
2023-05-19T12:55:44.205Z,82.36
2023-05-19T12:58:16.376Z,82.23
2023-05-19T13:00:45.493Z,82.26
2023-05-19T13:03:17.364Z,82.09
2023-05-19T13:05:47.235Z,82.52
2023-05-19T13:08:18.533Z,82.37
2023-05-19T13:10:46.885Z,82.07
2023-05-19T13:13:13.699Z,82.13
2023-05-19T13:15:45.595Z,82.33
2023-05-19T13:18:13.665Z,82.23
2023-05-19T13:20:42.514Z,82.37
2023-05-19T13:23:13.412Z,82.17
2023-05-19T13:25:41.398Z,82.11
2023-05-19T13:28:08.750Z,82.12
2023-05-19T13:30:37.096Z,82.54
2023-05-19T13:33:04.252Z,82.44
2023-05-19T13:35:37.191Z,82.61
2023-05-19T13:38:06.179Z,82.70
2023-05-19T13:40:36.854Z,82.95
2023-05-19T13:43:04.442Z,82.89
2023-05-19T13:45:31.664Z,82.81
2023-05-19T13:47:58.624Z,82.96
2023-05-19T13:50:25.694Z,83.03
2023-05-19T13:52:52.475Z,82.92
2023-05-19T13:55:19.527Z,83.25
2023-05-19T13:57:46.262Z,82.79
2023-05-19T14:00:13.419Z,83.01
2023-05-19T14:02:40.708Z,82.90
2023-05-19T14:05:08.283Z,83.12
2023-05-19T14:07:35.693Z,83.37
2023-05-19T14:10:04.327Z,83.30
2023-05-19T14:12:39.761Z,83.48
2023-05-19T14:15:14.636Z,83.43
2023-05-19T14:17:41.705Z,83.67
2023-05-19T14:20:10.355Z,84.13
2023-05-19T14:22:37.249Z,84.04
2023-05-19T14:25:14.690Z,84.33
2023-05-19T14:27:42.800Z,84.52
2023-05-19T14:30:10.021Z,84.77
2023-05-19T14:32:36.772Z,85.06
2023-05-19T14:35:03.932Z,85.09
2023-05-19T14:37:32.254Z,85.52
2023-05-19T14:39:59.489Z,85.84
2023-05-19T14:42:26.248Z,85.91
2023-05-19T14:44:53.061Z,85.88
2023-05-19T14:47:22.876Z,85.75
2023-05-19T14:49:49.726Z,85.80
2023-05-19T14:52:16.517Z,86.02
2023-05-19T14:54:43.283Z,85.94
2023-05-19T14:57:14.500Z,85.96
2023-05-19T14:59:41.325Z,85.95
2023-05-19T15:02:08.133Z,85.89
2023-05-19T15:04:34.892Z,85.99
2023-05-19T15:09:31.325Z,86.00
2023-05-19T15:11:58.277Z,85.98
2023-05-19T15:14:25.426Z,85.89
2023-05-19T15:16:53.163Z,86.17
2023-05-19T15:19:19.978Z,86.21
2023-05-19T15:21:46.910Z,86.09
2023-05-19T15:24:13.607Z,86.16
2023-05-19T15:26:40.402Z,86.02
2023-05-19T15:29:07.236Z,85.93
2023-05-19T15:31:35.871Z,86.44
2023-05-19T15:34:04.138Z,86.39
2023-05-19T15:36:31.796Z,86.55
2023-05-19T15:38:58.583Z,86.53
2023-05-19T15:41:25.802Z,86.58
2023-05-19T15:43:53.820Z,86.64
2023-05-19T15:46:20.751Z,86.91
2023-05-19T15:48:47.586Z,86.85
2023-05-19T15:51:14.504Z,87.03
2023-05-19T15:53:41.220Z,86.48
2023-05-19T15:56:08.059Z,86.75
2023-05-19T15:58:34.831Z,86.55
2023-05-19T16:01:01.746Z,86.74
2023-05-19T16:03:30.192Z,87.04
2023-05-19T16:05:57.217Z,87.16
2023-05-19T16:08:24.146Z,87.53
2023-05-19T16:10:51.084Z,87.36
2023-05-19T16:13:17.863Z,87.50
2023-05-19T16:15:44.634Z,87.69
2023-05-19T16:18:11.969Z,87.60
2023-05-19T16:20:39.991Z,87.70
2023-05-19T16:23:07.243Z,88.02
2023-05-19T16:25:34.924Z,88.07
2023-05-19T16:28:02.883Z,88.25
2023-05-19T16:30:30.195Z,88.33
2023-05-19T16:32:57.866Z,88.11
2023-05-19T16:35:25.436Z,88.35
2023-05-19T16:37:57.214Z,88.42
2023-05-19T16:40:25.085Z,88.43
2023-05-19T16:42:55.809Z,88.33
2023-05-19T16:45:23.713Z,88.52
2023-05-19T16:47:51.251Z,88.39
2023-05-19T16:50:19.085Z,88.41
2023-05-19T16:52:47.346Z,88.61
2023-05-19T16:55:20.294Z,88.90
2023-05-19T16:57:50.568Z,88.68
2023-05-19T17:00:18.569Z,88.64
2023-05-19T17:02:46.959Z,88.69
2023-05-19T17:05:14.542Z,88.79
2023-05-19T17:07:41.827Z,88.68
2023-05-19T17:10:09.968Z,88.66
2023-05-19T17:12:37.398Z,88.77
2023-05-19T17:15:05.402Z,88.99
2023-05-19T17:17:33.202Z,88.91
2023-05-19T17:20:00.759Z,89.14
2023-05-19T17:22:30.113Z,88.95
2023-05-19T17:24:58.384Z,89.16
2023-05-19T17:27:26.049Z,88.90
2023-05-19T17:29:53.429Z,89.04
2023-05-19T17:32:26.194Z,88.97
2023-05-19T17:34:54.120Z,88.99
2023-05-19T17:37:26.007Z,89.13
2023-05-19T17:39:53.481Z,89.21
2023-05-19T17:42:24.204Z,89.01
2023-05-19T17:44:53.701Z,89.34
2023-05-19T17:47:21.694Z,89.20
2023-05-19T17:49:52.152Z,89.54
2023-05-19T17:52:22.934Z,89.66
2023-05-19T17:54:51.496Z,89.52
2023-05-19T17:57:19.669Z,89.75
2023-05-19T17:59:47.336Z,89.60
2023-05-19T18:02:16.589Z,89.68
2023-05-19T18:04:44.323Z,89.76
2023-05-19T18:07:14.912Z,90.09
2023-05-19T18:09:51.399Z,90.03
2023-05-19T18:12:19.859Z,90.33
2023-05-19T18:14:47.792Z,90.44
2023-05-19T18:17:16.063Z,90.68
2023-05-19T18:19:43.301Z,90.81
2023-05-19T18:22:15.322Z,90.70
2023-05-19T18:24:52.614Z,91.02
2023-05-19T18:27:20.066Z,91.20
2023-05-19T18:29:47.204Z,91.35
2023-05-19T18:32:17.585Z,91.21
2023-05-19T18:34:44.924Z,91.29
2023-05-19T18:37:12.314Z,91.33
2023-05-19T18:39:39.822Z,91.43
2023-05-19T18:42:07.405Z,91.36
2023-05-19T18:44:35.700Z,91.75
2023-05-19T18:47:03.680Z,91.76
2023-05-19T18:49:31.048Z,91.65
2023-05-19T18:51:57.958Z,91.97
2023-05-19T18:54:26.506Z,92.01
2023-05-19T18:56:54.491Z,91.80
2023-05-19T18:59:22.032Z,91.86
2023-05-19T19:01:49.776Z,91.84
2023-05-19T19:04:17.149Z,91.91
2023-05-19T19:06:44.784Z,91.77
2023-05-19T19:09:12.543Z,91.78
2023-05-19T19:11:45.406Z,91.78
2023-05-19T19:14:13.688Z,91.85
2023-05-19T19:16:41.234Z,91.97
2023-05-19T19:19:08.888Z,91.92
2023-05-19T19:21:36.296Z,92.07
2023-05-19T19:24:03.717Z,91.98
2023-05-19T19:26:31.001Z,92.05
2023-05-19T19:28:58.787Z,92.02
2023-05-19T19:31:31.884Z,92.05
2023-05-19T19:34:03.431Z,92.18
2023-05-19T19:36:30.189Z,92.04
2023-05-19T19:38:58.632Z,91.95
2023-05-19T19:41:27.325Z,92.06
2023-05-19T19:43:54.716Z,91.97
2023-05-19T19:46:22.427Z,91.98
2023-05-19T19:48:50.171Z,92.13
2023-05-19T19:51:18.602Z,92.07
2023-05-19T19:53:46.102Z,91.97
2023-05-19T19:56:13.933Z,92.14
2023-05-19T19:58:41.478Z,91.97
2023-05-19T20:01:08.974Z,92.19
2023-05-19T20:03:36.652Z,92.04
2023-05-19T20:06:04.286Z,91.95
2023-05-19T20:08:31.679Z,92.22
2023-05-19T20:10:59.625Z,91.98
2023-05-19T20:13:27.239Z,92.16
2023-05-19T20:15:54.643Z,92.04
2023-05-19T20:18:22.555Z,92.05
2023-05-19T20:20:53.004Z,92.26
2023-05-19T20:23:20.498Z,92.32
2023-05-19T20:25:58.437Z,92.09
2023-05-19T20:28:35.284Z,92.20
2023-05-19T20:31:02.057Z,92.20
2023-05-19T20:33:28.951Z,92.32
2023-05-19T20:35:56.071Z,92.27
2023-05-19T20:38:22.856Z,92.23
2023-05-19T20:40:49.576Z,92.46
2023-05-19T20:43:16.302Z,92.55
2023-05-19T20:45:44.373Z,92.46
2023-05-19T20:48:11.859Z,92.49
2023-05-19T20:50:39.450Z,92.60
2023-05-19T20:53:07.603Z,92.51
2023-05-19T20:55:36.350Z,92.64
2023-05-19T20:58:03.147Z,92.76
2023-05-19T21:00:30.745Z,92.72
2023-05-19T21:02:57.736Z,92.75
2023-05-19T21:05:24.829Z,92.87
2023-05-19T21:07:51.781Z,92.69
2023-05-19T21:10:18.584Z,92.75
2023-05-19T21:12:45.298Z,92.94
2023-05-19T21:15:12.302Z,92.94
2023-05-19T21:17:39.150Z,92.97
2023-05-19T21:20:06.526Z,92.96
2023-05-19T21:22:33.253Z,92.86
2023-05-19T21:25:00.009Z,92.95
2023-05-19T21:27:26.726Z,93.21
2023-05-19T21:29:54.334Z,93.17
2023-05-19T21:32:21.792Z,93.13
2023-05-19T21:34:48.775Z,93.24
2023-05-19T21:37:17.419Z,93.48
2023-05-19T21:39:44.719Z,93.34
2023-05-19T21:42:11.522Z,93.39
2023-05-19T21:44:38.287Z,93.39
2023-05-19T21:47:05.159Z,93.57
2023-05-19T21:49:33.230Z,93.62
2023-05-19T21:51:59.955Z,93.57
2023-05-19T21:54:26.659Z,93.51
2023-05-19T21:56:53.416Z,93.43
2023-05-19T21:59:23.295Z,93.30
2023-05-19T22:01:50.457Z,93.08
2023-05-19T22:04:18.766Z,93.10
2023-05-19T22:06:45.711Z,93.30
2023-05-19T22:09:13.127Z,93.02
2023-05-19T22:11:40.159Z,93.23
2023-05-19T22:14:07.238Z,93.00
2023-05-19T22:16:35.145Z,93.08
2023-05-19T22:19:01.975Z,93.27
2023-05-19T22:21:28.837Z,93.33
2023-05-19T22:23:55.943Z,93.30
2023-05-19T22:26:22.630Z,93.23
2023-05-19T22:28:50.359Z,93.28
2023-05-19T22:31:17.820Z,93.43
2023-05-19T22:33:45.059Z,93.56
2023-05-19T22:36:11.780Z,93.40
2023-05-19T22:38:38.618Z,93.49
2023-05-19T22:41:05.664Z,93.42
2023-05-19T22:43:32.404Z,93.37
2023-05-19T22:45:59.221Z,93.54
2023-05-19T22:48:26.186Z,93.50
2023-05-19T22:50:53.043Z,93.37
2023-05-19T22:53:19.727Z,93.39
2023-05-19T22:55:46.970Z,93.41
2023-05-19T22:58:13.703Z,93.51
2023-05-19T23:00:40.677Z,93.73
2023-05-19T23:03:07.620Z,93.59
2023-05-19T23:05:34.515Z,93.65
2023-05-19T23:08:01.632Z,93.78
2023-05-19T23:10:28.484Z,93.61
2023-05-19T23:12:55.250Z,93.86
2023-05-19T23:15:22.010Z,93.76
2023-05-19T23:17:48.919Z,93.70
2023-05-19T23:20:15.910Z,93.69
2023-05-19T23:22:42.693Z,93.74
2023-05-19T23:25:09.766Z,93.86
2023-05-19T23:27:36.739Z,93.83
2023-05-19T23:30:04.052Z,93.80
2023-05-19T23:32:31.186Z,93.97
2023-05-19T23:34:57.970Z,93.96
2023-05-19T23:37:24.747Z,93.75
2023-05-19T23:39:51.622Z,93.87
2023-05-19T23:42:18.317Z,94.09
2023-05-19T23:44:45.020Z,94.04
2023-05-19T23:47:11.834Z,94.01
2023-05-19T23:49:38.701Z,93.93
2023-05-19T23:52:05.701Z,94.02
2023-05-19T23:54:32.367Z,94.03
2023-05-19T23:56:59.665Z,93.79
2023-05-19T23:59:26.389Z,94.00
